OEDFT LDRI-LOWG
Flight info
| Callsign | OEDFT |
|---|---|
| Flight time | 1h 19m |
| Altitude | 9500 |
| Route | N0097A095 ALIVO RADLY W SD |
| Aircraft | C172/L-SYDFGR/S |
Departure
| Time | 2026-04-25 10:48 |
|---|---|
| Airport | Rijeka Airport (LDRI) |
Arrival
| Time | 2026-04-25 12:07 |
|---|---|
| Airport | Graz Airport (LOWG) |
| Time | Latitude | Longitude | Altitude | Speed | Heading |
|---|---|---|---|---|---|
| 2026-04-25 10:33 | 45.21806 | 14.57146 | 263 ft | 0 kts | 232° |
| 2026-04-25 10:42 | 45.21801 | 14.57140 | 263 ft | 2 kts | 203° |
| 2026-04-25 10:42 | 45.21786 | 14.57157 | 263 ft | 4 kts | 98° |
| 2026-04-25 10:42 | 45.21776 | 14.57202 | 263 ft | 7 kts | 152° |
| 2026-04-25 10:43 | 45.21726 | 14.57204 | 262 ft | 8 kts | 181° |
| 2026-04-25 10:43 | 45.21699 | 14.57203 | 261 ft | 0 kts | 180° |
| 2026-04-25 10:47 | 45.21678 | 14.57203 | 261 ft | 8 kts | 181° |
| 2026-04-25 10:47 | 45.21616 | 14.57193 | 260 ft | 9 kts | 193° |
| 2026-04-25 10:47 | 45.21598 | 14.57155 | 259 ft | 6 kts | 314° |
| 2026-04-25 10:47 | 45.21742 | 14.57002 | 258 ft | 52 kts | 324° |
| 2026-04-25 10:48 | 45.22131 | 14.56594 | 333 ft | 80 kts | 323° |
| 2026-04-25 10:48 | 45.22592 | 14.56149 | 601 ft | 78 kts | 324° |
| 2026-04-25 10:48 | 45.23032 | 14.55703 | 935 ft | 77 kts | 317° |
| 2026-04-25 10:48 | 45.23132 | 14.54973 | 1075 ft | 87 kts | 251° |
| 2026-04-25 10:49 | 45.22808 | 14.54212 | 1186 ft | 92 kts | 242° |
| 2026-04-25 10:49 | 45.22744 | 14.53649 | 1363 ft | 84 kts | 281° |
| 2026-04-25 10:49 | 45.22891 | 14.52558 | 1617 ft | 84 kts | 282° |
| 2026-04-25 10:49 | 45.23008 | 14.51771 | 1819 ft | 81 kts | 285° |
| 2026-04-25 10:50 | 45.23308 | 14.51167 | 2062 ft | 75 kts | 324° |
| 2026-04-25 10:50 | 45.23816 | 14.50945 | 2219 ft | 84 kts | 5° |
| 2026-04-25 10:50 | 45.24349 | 14.51328 | 2362 ft | 90 kts | 43° |
| 2026-04-25 10:50 | 45.24803 | 14.51949 | 2559 ft | 91 kts | 45° |
| 2026-04-25 10:51 | 45.25290 | 14.52512 | 2730 ft | 90 kts | 32° |
| 2026-04-25 10:51 | 45.25815 | 14.53064 | 2874 ft | 96 kts | 36° |
| 2026-04-25 10:51 | 45.26322 | 14.53669 | 3074 ft | 98 kts | 40° |
| 2026-04-25 10:51 | 45.26818 | 14.54377 | 3257 ft | 100 kts | 44° |
| 2026-04-25 10:52 | 45.27299 | 14.55045 | 3511 ft | 95 kts | 43° |
| 2026-04-25 10:52 | 45.27791 | 14.55677 | 3721 ft | 95 kts | 40° |
| 2026-04-25 10:52 | 45.28295 | 14.56298 | 3906 ft | 96 kts | 38° |
| 2026-04-25 10:52 | 45.28796 | 14.56898 | 4127 ft | 94 kts | 29° |
| 2026-04-25 10:53 | 45.29355 | 14.57360 | 4400 ft | 93 kts | 30° |
| 2026-04-25 10:53 | 45.29892 | 14.57895 | 4715 ft | 96 kts | 32° |
| 2026-04-25 10:53 | 45.30442 | 14.58450 | 4979 ft | 101 kts | 34° |
| 2026-04-25 10:53 | 45.31000 | 14.59059 | 5287 ft | 99 kts | 34° |
| 2026-04-25 10:54 | 45.31537 | 14.59617 | 5633 ft | 94 kts | 31° |
| 2026-04-25 10:54 | 45.31905 | 14.59939 | 5874 ft | 92 kts | 25° |
| 2026-04-25 10:54 | 45.32622 | 14.60578 | 6096 ft | 93 kts | 32° |
| 2026-04-25 10:54 | 45.33142 | 14.61084 | 6450 ft | 87 kts | 28° |
| 2026-04-25 10:55 | 45.33652 | 14.61553 | 6597 ft | 89 kts | 27° |
| 2026-04-25 10:55 | 45.34180 | 14.62021 | 6764 ft | 87 kts | 25° |
| 2026-04-25 10:55 | 45.34709 | 14.62436 | 6922 ft | 87 kts | 26° |
| 2026-04-25 10:55 | 45.35222 | 14.62892 | 7187 ft | 86 kts | 29° |
| 2026-04-25 10:56 | 45.35719 | 14.63359 | 7388 ft | 87 kts | 29° |
| 2026-04-25 10:56 | 45.36216 | 14.63834 | 7564 ft | 85 kts | 25° |
| 2026-04-25 10:56 | 45.36714 | 14.64276 | 7927 ft | 84 kts | 28° |
| 2026-04-25 10:56 | 45.37186 | 14.64741 | 8116 ft | 82 kts | 31° |
| 2026-04-25 10:57 | 45.37622 | 14.65246 | 8364 ft | 81 kts | 36° |
| 2026-04-25 10:57 | 45.38074 | 14.65723 | 8573 ft | 81 kts | 28° |
| 2026-04-25 10:57 | 45.38551 | 14.66164 | 8679 ft | 83 kts | 28° |
| 2026-04-25 10:57 | 45.39036 | 14.66622 | 8907 ft | 85 kts | 30° |
| 2026-04-25 10:58 | 45.39551 | 14.67051 | 9051 ft | 85 kts | 21° |
| 2026-04-25 10:58 | 45.40071 | 14.67394 | 9233 ft | 84 kts | 23° |
| 2026-04-25 10:58 | 45.40588 | 14.67774 | 9398 ft | 83 kts | 25° |
| 2026-04-25 10:58 | 45.41094 | 14.68206 | 9473 ft | 88 kts | 27° |
| 2026-04-25 10:59 | 45.41611 | 14.68708 | 9477 ft | 93 kts | 31° |
| 2026-04-25 10:59 | 45.42160 | 14.69235 | 9526 ft | 95 kts | 28° |
| 2026-04-25 10:59 | 45.42707 | 14.69785 | 9547 ft | 98 kts | 32° |
| 2026-04-25 10:59 | 45.43274 | 14.70348 | 9561 ft | 100 kts | 28° |
| 2026-04-25 11:00 | 45.43876 | 14.70845 | 9583 ft | 101 kts | 27° |
| 2026-04-25 11:00 | 45.44487 | 14.71334 | 9558 ft | 98 kts | 24° |
| 2026-04-25 11:00 | 45.45118 | 14.71724 | 9469 ft | 100 kts | 19° |
| 2026-04-25 11:00 | 45.45755 | 14.72117 | 9452 ft | 99 kts | 21° |
| 2026-04-25 11:01 | 45.46376 | 14.72545 | 9429 ft | 100 kts | 23° |
| 2026-04-25 11:01 | 45.46794 | 14.72845 | 9410 ft | 99 kts | 22° |
| 2026-04-25 11:01 | 45.47429 | 14.73246 | 9367 ft | 99 kts | 15° |
| 2026-04-25 11:01 | 45.48091 | 14.73520 | 9303 ft | 100 kts | 12° |
| 2026-04-25 11:02 | 45.48749 | 14.73753 | 9323 ft | 95 kts | 10° |
| 2026-04-25 11:02 | 45.49408 | 14.73904 | 9255 ft | 99 kts | 6° |
| 2026-04-25 11:02 | 45.50065 | 14.74050 | 9318 ft | 93 kts | 7° |
| 2026-04-25 11:02 | 45.50693 | 14.74194 | 9387 ft | 89 kts | 8° |
| 2026-04-25 11:03 | 45.51288 | 14.74364 | 9458 ft | 88 kts | 9° |
| 2026-04-25 11:03 | 45.51898 | 14.74560 | 9459 ft | 91 kts | 11° |
| 2026-04-25 11:03 | 45.52527 | 14.74788 | 9482 ft | 97 kts | 11° |
| 2026-04-25 11:03 | 45.53199 | 14.75033 | 9549 ft | 105 kts | 10° |
| 2026-04-25 11:04 | 45.53911 | 14.75306 | 9728 ft | 102 kts | 15° |
| 2026-04-25 11:04 | 45.54553 | 14.75718 | 9681 ft | 101 kts | 23° |
| 2026-04-25 11:04 | 45.55187 | 14.76186 | 9562 ft | 107 kts | 23° |
| 2026-04-25 11:04 | 45.55844 | 14.76683 | 9505 ft | 105 kts | 24° |
| 2026-04-25 11:05 | 45.56501 | 14.77200 | 9526 ft | 108 kts | 24° |
| 2026-04-25 11:05 | 45.57171 | 14.77684 | 9409 ft | 110 kts | 22° |
| 2026-04-25 11:05 | 45.57838 | 14.78163 | 9391 ft | 104 kts | 22° |
| 2026-04-25 11:05 | 45.58461 | 14.78595 | 9387 ft | 99 kts | 21° |
| 2026-04-25 11:06 | 45.59076 | 14.79008 | 9397 ft | 96 kts | 21° |
| 2026-04-25 11:06 | 45.59664 | 14.79426 | 9498 ft | 91 kts | 23° |
| 2026-04-25 11:06 | 45.60248 | 14.79870 | 9517 ft | 100 kts | 22° |
| 2026-04-25 11:06 | 45.60890 | 14.80296 | 9468 ft | 101 kts | 20° |
| 2026-04-25 11:07 | 45.61486 | 14.80702 | 9423 ft | 93 kts | 22° |
| 2026-04-25 11:07 | 45.62067 | 14.81118 | 9388 ft | 92 kts | 22° |
| 2026-04-25 11:07 | 45.62631 | 14.81533 | 9423 ft | 91 kts | 23° |
| 2026-04-25 11:07 | 45.63182 | 14.81992 | 9465 ft | 92 kts | 25° |
| 2026-04-25 11:08 | 45.63737 | 14.82439 | 9537 ft | 92 kts | 25° |
| 2026-04-25 11:08 | 45.64311 | 14.82905 | 9504 ft | 99 kts | 24° |
| 2026-04-25 11:08 | 45.64914 | 14.83381 | 9514 ft | 99 kts | 25° |
| 2026-04-25 11:08 | 45.65517 | 14.83878 | 9515 ft | 101 kts | 27° |
| 2026-04-25 11:09 | 45.66127 | 14.84390 | 9576 ft | 101 kts | 26° |
| 2026-04-25 11:09 | 45.66733 | 14.84906 | 9550 ft | 105 kts | 26° |
| 2026-04-25 11:09 | 45.67359 | 14.85456 | 9591 ft | 106 kts | 27° |
| 2026-04-25 11:09 | 45.68005 | 14.85972 | 9536 ft | 107 kts | 25° |
| 2026-04-25 11:10 | 45.68663 | 14.86499 | 9450 ft | 110 kts | 25° |
| 2026-04-25 11:10 | 45.69108 | 14.86866 | 9514 ft | 108 kts | 26° |
| 2026-04-25 11:10 | 45.69957 | 14.87568 | 9486 ft | 108 kts | 26° |
| 2026-04-25 11:10 | 45.70611 | 14.88141 | 9404 ft | 107 kts | 28° |
| 2026-04-25 11:11 | 45.71210 | 14.88739 | 9423 ft | 105 kts | 32° |
| 2026-04-25 11:11 | 45.71797 | 14.89389 | 9494 ft | 109 kts | 33° |
| 2026-04-25 11:11 | 45.72389 | 14.90085 | 9368 ft | 113 kts | 33° |
| 2026-04-25 11:11 | 45.73012 | 14.90759 | 9279 ft | 111 kts | 32° |
| 2026-04-25 11:12 | 45.73632 | 14.91408 | 9241 ft | 106 kts | 31° |
| 2026-04-25 11:12 | 45.74204 | 14.91985 | 9393 ft | 97 kts | 31° |
| 2026-04-25 11:12 | 45.74740 | 14.92547 | 9447 ft | 95 kts | 28° |
| 2026-04-25 11:12 | 45.75280 | 14.93081 | 9496 ft | 95 kts | 29° |
| 2026-04-25 11:13 | 45.75819 | 14.93664 | 9498 ft | 100 kts | 34° |
| 2026-04-25 11:13 | 45.76348 | 14.94323 | 9485 ft | 104 kts | 33° |
| 2026-04-25 11:13 | 45.76930 | 14.94993 | 9419 ft | 108 kts | 32° |
| 2026-04-25 11:13 | 45.77529 | 14.95595 | 9464 ft | 103 kts | 28° |
| 2026-04-25 11:14 | 45.78146 | 14.96121 | 9465 ft | 103 kts | 25° |
| 2026-04-25 11:14 | 45.78774 | 14.96610 | 9486 ft | 102 kts | 23° |
| 2026-04-25 11:14 | 45.79394 | 14.97081 | 9510 ft | 99 kts | 24° |
| 2026-04-25 11:14 | 45.80005 | 14.97516 | 9595 ft | 97 kts | 20° |
| 2026-04-25 11:15 | 45.80671 | 14.97920 | 9537 ft | 108 kts | 15° |
| 2026-04-25 11:15 | 45.81396 | 14.98248 | 9518 ft | 110 kts | 14° |
| 2026-04-25 11:15 | 45.82118 | 14.98545 | 9488 ft | 108 kts | 12° |
| 2026-04-25 11:15 | 45.82838 | 14.98860 | 9507 ft | 107 kts | 14° |
| 2026-04-25 11:16 | 45.84233 | 14.99513 | 9442 ft | 105 kts | 13° |
| 2026-04-25 11:16 | 45.84930 | 14.99826 | 9407 ft | 106 kts | 13° |
| 2026-04-25 11:16 | 45.85626 | 15.00150 | 9402 ft | 105 kts | 12° |
| 2026-04-25 11:17 | 45.86304 | 15.00472 | 9546 ft | 98 kts | 14° |
| 2026-04-25 11:17 | 45.86952 | 15.00783 | 9505 ft | 101 kts | 14° |
| 2026-04-25 11:17 | 45.87624 | 15.01117 | 9528 ft | 104 kts | 14° |
| 2026-04-25 11:17 | 45.88318 | 15.01455 | 9570 ft | 106 kts | 13° |
| 2026-04-25 11:18 | 45.89031 | 15.01758 | 9574 ft | 109 kts | 15° |
| 2026-04-25 11:18 | 45.89771 | 15.02076 | 9535 ft | 110 kts | 13° |
| 2026-04-25 11:18 | 45.90501 | 15.02385 | 9533 ft | 109 kts | 14° |
| 2026-04-25 11:18 | 45.91228 | 15.02683 | 9510 ft | 111 kts | 14° |
| 2026-04-25 11:19 | 45.91936 | 15.03123 | 9512 ft | 111 kts | 23° |
| 2026-04-25 11:19 | 45.92611 | 15.03664 | 9535 ft | 111 kts | 26° |
| 2026-04-25 11:19 | 45.93270 | 15.04255 | 9537 ft | 111 kts | 28° |
| 2026-04-25 11:19 | 45.93932 | 15.04874 | 9520 ft | 115 kts | 30° |
| 2026-04-25 11:20 | 45.94596 | 15.05527 | 9444 ft | 115 kts | 30° |
| 2026-04-25 11:20 | 45.95250 | 15.06172 | 9447 ft | 115 kts | 30° |
| 2026-04-25 11:20 | 45.95901 | 15.06810 | 9429 ft | 115 kts | 30° |
| 2026-04-25 11:20 | 45.96553 | 15.07469 | 9426 ft | 113 kts | 31° |
| 2026-04-25 11:21 | 45.97184 | 15.08129 | 9424 ft | 111 kts | 32° |
| 2026-04-25 11:21 | 45.97781 | 15.08807 | 9458 ft | 108 kts | 32° |
| 2026-04-25 11:21 | 45.98384 | 15.09460 | 9451 ft | 111 kts | 31° |
| 2026-04-25 11:21 | 45.99002 | 15.10127 | 9414 ft | 111 kts | 31° |
| 2026-04-25 11:22 | 45.99636 | 15.10784 | 9362 ft | 112 kts | 29° |
| 2026-04-25 11:22 | 46.00056 | 15.11188 | 9439 ft | 109 kts | 29° |
| 2026-04-25 11:22 | 46.00891 | 15.11968 | 9440 ft | 107 kts | 27° |
| 2026-04-25 11:22 | 46.01533 | 15.12520 | 9458 ft | 107 kts | 25° |
| 2026-04-25 11:23 | 46.02170 | 15.13072 | 9511 ft | 106 kts | 26° |
| 2026-04-25 11:23 | 46.02790 | 15.13631 | 9496 ft | 108 kts | 27° |
| 2026-04-25 11:23 | 46.03425 | 15.14186 | 9516 ft | 106 kts | 26° |
| 2026-04-25 11:23 | 46.04038 | 15.14774 | 9517 ft | 105 kts | 29° |
| 2026-04-25 11:24 | 46.04629 | 15.15365 | 9528 ft | 102 kts | 30° |
| 2026-04-25 11:24 | 46.05222 | 15.15924 | 9541 ft | 104 kts | 26° |
| 2026-04-25 11:24 | 46.05840 | 15.16472 | 9506 ft | 105 kts | 26° |
| 2026-04-25 11:24 | 46.06491 | 15.16975 | 9509 ft | 107 kts | 23° |
| 2026-04-25 11:25 | 46.07144 | 15.17490 | 9509 ft | 107 kts | 25° |
| 2026-04-25 11:25 | 46.07776 | 15.18093 | 9483 ft | 108 kts | 28° |
| 2026-04-25 11:25 | 46.08402 | 15.18692 | 9463 ft | 108 kts | 28° |
| 2026-04-25 11:25 | 46.09027 | 15.19285 | 9490 ft | 107 kts | 31° |
| 2026-04-25 11:26 | 46.09656 | 15.19844 | 9521 ft | 108 kts | 25° |
| 2026-04-25 11:26 | 46.10306 | 15.20425 | 9454 ft | 111 kts | 24° |
| 2026-04-25 11:26 | 46.10984 | 15.20978 | 9444 ft | 112 kts | 26° |
| 2026-04-25 11:26 | 46.11636 | 15.21534 | 9487 ft | 107 kts | 23° |
| 2026-04-25 11:27 | 46.12293 | 15.22048 | 9493 ft | 107 kts | 25° |
| 2026-04-25 11:27 | 46.12946 | 15.22554 | 9513 ft | 107 kts | 22° |
| 2026-04-25 11:27 | 46.13633 | 15.23044 | 9460 ft | 111 kts | 21° |
| 2026-04-25 11:27 | 46.14077 | 15.23371 | 9502 ft | 106 kts | 23° |
| 2026-04-25 11:28 | 46.14959 | 15.24035 | 9547 ft | 108 kts | 21° |
| 2026-04-25 11:28 | 46.15654 | 15.24470 | 9525 ft | 110 kts | 19° |
| 2026-04-25 11:28 | 46.16368 | 15.24903 | 9462 ft | 112 kts | 17° |
| 2026-04-25 11:28 | 46.17103 | 15.25281 | 9384 ft | 113 kts | 15° |
| 2026-04-25 11:29 | 46.17797 | 15.25672 | 9429 ft | 107 kts | 17° |
| 2026-04-25 11:29 | 46.18491 | 15.26064 | 9418 ft | 106 kts | 18° |
| 2026-04-25 11:29 | 46.19168 | 15.26479 | 9356 ft | 106 kts | 19° |
| 2026-04-25 11:29 | 46.19829 | 15.26926 | 9384 ft | 104 kts | 22° |
| 2026-04-25 11:30 | 46.20462 | 15.27385 | 9468 ft | 101 kts | 22° |
| 2026-04-25 11:30 | 46.21080 | 15.27848 | 9508 ft | 100 kts | 22° |
| 2026-04-25 11:30 | 46.21711 | 15.28314 | 9519 ft | 105 kts | 24° |
| 2026-04-25 11:30 | 46.22371 | 15.28779 | 9501 ft | 105 kts | 21° |
| 2026-04-25 11:31 | 46.23038 | 15.29231 | 9471 ft | 107 kts | 21° |
| 2026-04-25 11:31 | 46.23740 | 15.29566 | 9476 ft | 104 kts | 359° |
| 2026-04-25 11:31 | 46.24443 | 15.29392 | 9459 ft | 103 kts | 345° |
| 2026-04-25 11:31 | 46.25145 | 15.29146 | 9444 ft | 105 kts | 346° |
| 2026-04-25 11:32 | 46.25862 | 15.28922 | 9423 ft | 106 kts | 349° |
| 2026-04-25 11:32 | 46.26564 | 15.28778 | 9466 ft | 102 kts | 349° |
| 2026-04-25 11:32 | 46.27269 | 15.28654 | 9505 ft | 102 kts | 351° |
| 2026-04-25 11:32 | 46.27978 | 15.28551 | 9439 ft | 105 kts | 355° |
| 2026-04-25 11:33 | 46.28691 | 15.28487 | 9441 ft | 100 kts | 353° |
| 2026-04-25 11:33 | 46.29380 | 15.28434 | 9436 ft | 98 kts | 355° |
| 2026-04-25 11:33 | 46.30051 | 15.28414 | 9455 ft | 96 kts | 356° |
| 2026-04-25 11:33 | 46.30719 | 15.28400 | 9484 ft | 97 kts | 355° |
| 2026-04-25 11:34 | 46.31411 | 15.28368 | 9443 ft | 107 kts | 356° |
| 2026-04-25 11:34 | 46.32157 | 15.28357 | 9466 ft | 105 kts | 355° |
| 2026-04-25 11:34 | 46.32881 | 15.28293 | 9405 ft | 108 kts | 353° |
| 2026-04-25 11:34 | 46.33613 | 15.28212 | 9389 ft | 105 kts | 353° |
| 2026-04-25 11:35 | 46.34346 | 15.28115 | 9355 ft | 103 kts | 352° |
| 2026-04-25 11:35 | 46.35052 | 15.28021 | 9411 ft | 100 kts | 353° |
| 2026-04-25 11:35 | 46.35741 | 15.27944 | 9414 ft | 98 kts | 353° |
| 2026-04-25 11:35 | 46.36408 | 15.27849 | 9454 ft | 94 kts | 352° |
| 2026-04-25 11:36 | 46.37053 | 15.27722 | 9444 ft | 95 kts | 350° |
| 2026-04-25 11:36 | 46.37689 | 15.27601 | 9492 ft | 89 kts | 349° |
| 2026-04-25 11:36 | 46.38316 | 15.27501 | 9544 ft | 92 kts | 353° |
| 2026-04-25 11:36 | 46.38976 | 15.27406 | 9417 ft | 100 kts | 352° |
| 2026-04-25 11:37 | 46.39683 | 15.27298 | 9327 ft | 103 kts | 353° |
| 2026-04-25 11:37 | 46.40396 | 15.27180 | 9210 ft | 104 kts | 351° |
| 2026-04-25 11:37 | 46.41111 | 15.27024 | 9106 ft | 104 kts | 349° |
| 2026-04-25 11:37 | 46.41824 | 15.26891 | 8966 ft | 104 kts | 352° |
| 2026-04-25 11:38 | 46.42555 | 15.26787 | 8851 ft | 106 kts | 352° |
| 2026-04-25 11:38 | 46.43281 | 15.26690 | 8710 ft | 104 kts | 351° |
| 2026-04-25 11:38 | 46.43992 | 15.26521 | 8568 ft | 104 kts | 348° |
| 2026-04-25 11:38 | 46.44708 | 15.26315 | 8577 ft | 105 kts | 345° |
| 2026-04-25 11:39 | 46.45425 | 15.26097 | 8444 ft | 106 kts | 347° |
| 2026-04-25 11:39 | 46.46143 | 15.25883 | 8332 ft | 105 kts | 346° |
| 2026-04-25 11:39 | 46.46863 | 15.25663 | 8219 ft | 105 kts | 346° |
| 2026-04-25 11:39 | 46.47575 | 15.25419 | 8044 ft | 107 kts | 342° |
| 2026-04-25 11:40 | 46.48302 | 15.25159 | 7921 ft | 107 kts | 344° |
| 2026-04-25 11:40 | 46.49028 | 15.24938 | 7766 ft | 107 kts | 346° |
| 2026-04-25 11:40 | 46.49759 | 15.24753 | 7659 ft | 106 kts | 346° |
| 2026-04-25 11:40 | 46.50476 | 15.24545 | 7576 ft | 103 kts | 347° |
| 2026-04-25 11:41 | 46.51202 | 15.24384 | 7413 ft | 108 kts | 349° |
| 2026-04-25 11:41 | 46.51927 | 15.24257 | 7308 ft | 105 kts | 351° |
| 2026-04-25 11:41 | 46.52664 | 15.24096 | 7157 ft | 106 kts | 347° |
| 2026-04-25 11:41 | 46.53390 | 15.23899 | 7005 ft | 106 kts | 346° |
| 2026-04-25 11:42 | 46.54107 | 15.23710 | 6857 ft | 106 kts | 346° |
| 2026-04-25 11:42 | 46.54839 | 15.23515 | 6688 ft | 107 kts | 345° |
| 2026-04-25 11:42 | 46.55566 | 15.23307 | 6566 ft | 106 kts | 346° |
| 2026-04-25 11:42 | 46.56307 | 15.23080 | 6402 ft | 110 kts | 345° |
| 2026-04-25 11:43 | 46.57042 | 15.22866 | 6257 ft | 107 kts | 348° |
| 2026-04-25 11:43 | 46.57793 | 15.22748 | 6167 ft | 111 kts | 348° |
| 2026-04-25 11:43 | 46.58557 | 15.22611 | 6008 ft | 112 kts | 350° |
| 2026-04-25 11:43 | 46.59326 | 15.22500 | 5858 ft | 111 kts | 351° |
| 2026-04-25 11:44 | 46.60120 | 15.22408 | 5696 ft | 117 kts | 353° |
| 2026-04-25 11:44 | 46.60915 | 15.22339 | 5637 ft | 116 kts | 354° |
| 2026-04-25 11:44 | 46.61719 | 15.22284 | 5521 ft | 116 kts | 356° |
| 2026-04-25 11:44 | 46.62505 | 15.22178 | 5275 ft | 111 kts | 348° |
| 2026-04-25 11:45 | 46.63256 | 15.22021 | 5097 ft | 115 kts | 352° |
| 2026-04-25 11:45 | 46.64048 | 15.21963 | 4902 ft | 112 kts | 355° |
| 2026-04-25 11:45 | 46.64818 | 15.22000 | 4702 ft | 109 kts | 3° |
| 2026-04-25 11:45 | 46.65567 | 15.22197 | 4445 ft | 109 kts | 18° |
| 2026-04-25 11:46 | 46.66260 | 15.22615 | 4238 ft | 108 kts | 21° |
| 2026-04-25 11:46 | 46.66940 | 15.23071 | 4113 ft | 107 kts | 27° |
| 2026-04-25 11:46 | 46.67612 | 15.23571 | 3915 ft | 108 kts | 24° |
| 2026-04-25 11:46 | 46.68300 | 15.24014 | 3825 ft | 109 kts | 26° |
| 2026-04-25 11:47 | 46.68996 | 15.24444 | 3771 ft | 113 kts | 18° |
| 2026-04-25 11:47 | 46.69766 | 15.24746 | 3715 ft | 112 kts | 11° |
| 2026-04-25 11:47 | 46.70502 | 15.24970 | 3565 ft | 108 kts | 8° |
| 2026-04-25 11:47 | 46.71235 | 15.25170 | 3519 ft | 106 kts | 11° |
| 2026-04-25 11:48 | 46.71985 | 15.25389 | 3539 ft | 114 kts | 10° |
| 2026-04-25 11:48 | 46.72767 | 15.25576 | 3499 ft | 112 kts | 8° |
| 2026-04-25 11:48 | 46.73523 | 15.25826 | 3563 ft | 111 kts | 17° |
| 2026-04-25 11:48 | 46.74285 | 15.26115 | 3582 ft | 113 kts | 15° |
| 2026-04-25 11:49 | 46.75059 | 15.26415 | 3492 ft | 114 kts | 15° |
| 2026-04-25 11:49 | 46.75557 | 15.26618 | 3488 ft | 112 kts | 14° |
| 2026-04-25 11:49 | 46.76281 | 15.26961 | 3516 ft | 107 kts | 17° |
| 2026-04-25 11:49 | 46.77244 | 15.27334 | 3537 ft | 107 kts | 12° |
| 2026-04-25 11:50 | 46.77726 | 15.27504 | 3498 ft | 111 kts | 14° |
| 2026-04-25 11:50 | 46.78466 | 15.27783 | 3507 ft | 108 kts | 15° |
| 2026-04-25 11:50 | 46.79195 | 15.28075 | 3485 ft | 110 kts | 18° |
| 2026-04-25 11:50 | 46.79918 | 15.28445 | 3351 ft | 111 kts | 19° |
| 2026-04-25 11:51 | 46.80654 | 15.28781 | 3227 ft | 110 kts | 19° |
| 2026-04-25 11:51 | 46.81384 | 15.29146 | 3076 ft | 113 kts | 21° |
| 2026-04-25 11:51 | 46.82148 | 15.29461 | 2891 ft | 119 kts | 17° |
| 2026-04-25 11:51 | 46.82908 | 15.29747 | 2836 ft | 110 kts | 18° |
| 2026-04-25 11:52 | 46.83622 | 15.30059 | 2781 ft | 104 kts | 20° |
| 2026-04-25 11:52 | 46.84316 | 15.30347 | 2740 ft | 102 kts | 20° |
| 2026-04-25 11:52 | 46.84980 | 15.30663 | 2726 ft | 97 kts | 23° |
| 2026-04-25 11:52 | 46.85599 | 15.31006 | 2778 ft | 97 kts | 24° |
| 2026-04-25 11:53 | 46.86252 | 15.31374 | 2765 ft | 105 kts | 22° |
| 2026-04-25 11:53 | 46.86968 | 15.31741 | 2781 ft | 109 kts | 24° |
| 2026-04-25 11:53 | 46.87690 | 15.32104 | 2821 ft | 109 kts | 24° |
| 2026-04-25 11:53 | 46.88405 | 15.32512 | 2880 ft | 111 kts | 27° |
| 2026-04-25 11:54 | 46.89115 | 15.32998 | 2846 ft | 114 kts | 29° |
| 2026-04-25 11:54 | 46.89831 | 15.33518 | 2837 ft | 116 kts | 31° |
| 2026-04-25 11:54 | 46.91225 | 15.34508 | 2572 ft | 111 kts | 31° |
| 2026-04-25 11:55 | 46.91897 | 15.35037 | 2459 ft | 112 kts | 32° |
| 2026-04-25 11:55 | 46.92588 | 15.35532 | 2303 ft | 108 kts | 30° |
| 2026-04-25 11:55 | 46.93282 | 15.36014 | 2172 ft | 110 kts | 30° |
| 2026-04-25 11:55 | 46.93952 | 15.36526 | 2078 ft | 107 kts | 34° |
| 2026-04-25 11:56 | 46.94581 | 15.37035 | 2001 ft | 102 kts | 39° |
| 2026-04-25 11:56 | 46.95144 | 15.37567 | 1983 ft | 92 kts | 36° |
| 2026-04-25 11:56 | 46.95694 | 15.37995 | 2013 ft | 87 kts | 36° |
| 2026-04-25 11:56 | 46.96140 | 15.38570 | 2017 ft | 85 kts | 58° |
| 2026-04-25 11:57 | 46.96495 | 15.39265 | 2082 ft | 85 kts | 58° |
| 2026-04-25 11:57 | 46.96808 | 15.40014 | 2155 ft | 86 kts | 69° |
| 2026-04-25 11:57 | 46.97054 | 15.40789 | 2224 ft | 77 kts | 71° |
| 2026-04-25 11:57 | 46.97187 | 15.41522 | 2052 ft | 75 kts | 79° |
| 2026-04-25 11:58 | 46.97217 | 15.42275 | 1919 ft | 77 kts | 89° |
| 2026-04-25 11:58 | 46.97204 | 15.43068 | 1823 ft | 78 kts | 100° |
| 2026-04-25 11:58 | 46.97106 | 15.43841 | 1684 ft | 76 kts | 106° |
| 2026-04-25 11:58 | 46.97293 | 15.44429 | 1553 ft | 77 kts | 5° |
| 2026-04-25 11:59 | 46.97833 | 15.44296 | 1315 ft | 75 kts | 355° |
| 2026-04-25 11:59 | 46.98383 | 15.44126 | 1331 ft | 88 kts | 351° |
| 2026-04-25 11:59 | 46.99060 | 15.43935 | 1389 ft | 103 kts | 354° |
| 2026-04-25 12:00 | 47.00467 | 15.43539 | 1892 ft | 101 kts | 336° |
| 2026-04-25 12:00 | 47.00702 | 15.42636 | 1934 ft | 109 kts | 241° |
| 2026-04-25 12:00 | 46.99766 | 15.41075 | 2014 ft | 100 kts | 187° |
| 2026-04-25 12:01 | 46.99062 | 15.41241 | 1932 ft | 99 kts | 165° |
| 2026-04-25 12:01 | 46.98435 | 15.41479 | 1969 ft | 87 kts | 166° |
| 2026-04-25 12:01 | 46.97867 | 15.41722 | 1931 ft | 85 kts | 161° |
| 2026-04-25 12:01 | 46.97287 | 15.41967 | 1806 ft | 89 kts | 162° |
| 2026-04-25 12:02 | 46.96913 | 15.43285 | 1562 ft | 78 kts | 84° |
| 2026-04-25 12:02 | 46.96990 | 15.44061 | 1452 ft | 76 kts | 72° |
| 2026-04-25 12:02 | 46.97466 | 15.44394 | 1265 ft | 83 kts | 2° |
| 2026-04-25 12:03 | 46.98004 | 15.44266 | 1126 ft | 70 kts | 356° |
| 2026-04-25 12:03 | 46.98475 | 15.44127 | 1108 ft | 70 kts | 353° |
| 2026-04-25 12:03 | 46.98952 | 15.43999 | 1119 ft | 69 kts | 352° |
| 2026-04-25 12:03 | 46.99462 | 15.43846 | 1211 ft | 84 kts | 355° |
| 2026-04-25 12:04 | 47.00048 | 15.43673 | 1429 ft | 88 kts | 355° |
| 2026-04-25 12:04 | 47.00666 | 15.43519 | 1716 ft | 90 kts | 358° |
| 2026-04-25 12:04 | 47.01132 | 15.42995 | 1979 ft | 95 kts | 283° |
| 2026-04-25 12:04 | 47.00865 | 15.42113 | 1957 ft | 104 kts | 218° |
| 2026-04-25 12:05 | 47.00302 | 15.41446 | 1991 ft | 102 kts | 216° |
| 2026-04-25 12:05 | 46.99688 | 15.40916 | 2048 ft | 102 kts | 187° |
| 2026-04-25 12:05 | 46.98974 | 15.41068 | 1986 ft | 102 kts | 165° |
| 2026-04-25 12:05 | 46.98335 | 15.41337 | 2003 ft | 94 kts | 159° |
| 2026-04-25 12:06 | 46.97725 | 15.41637 | 1958 ft | 91 kts | 160° |
| 2026-04-25 12:06 | 46.97123 | 15.41939 | 1858 ft | 87 kts | 149° |
| 2026-04-25 12:06 | 46.96928 | 15.42723 | 1697 ft | 88 kts | 84° |
| 2026-04-25 12:06 | 46.96993 | 15.43576 | 1526 ft | 77 kts | 92° |
| 2026-04-25 12:07 | 46.97006 | 15.44317 | 1359 ft | 73 kts | 69° |
| 2026-04-25 12:07 | 46.97487 | 15.44410 | 1215 ft | 82 kts | 348° |
| 2026-04-25 12:07 | 46.97981 | 15.44274 | 1101 ft | 66 kts | 353° |
| 2026-04-25 12:07 | 46.98364 | 15.44169 | 1094 ft | 43 kts | 352° |
| 2026-04-25 12:08 | 46.98624 | 15.44098 | 1097 ft | 34 kts | 349° |
| 2026-04-25 12:08 | 46.98834 | 15.44039 | 1099 ft | 28 kts | 349° |
| 2026-04-25 12:08 | 46.99020 | 15.43989 | 1102 ft | 27 kts | 349° |
| 2026-04-25 12:08 | 46.99183 | 15.43941 | 1105 ft | 17 kts | 346° |
| 2026-04-25 12:09 | 46.99274 | 15.43995 | 1105 ft | 14 kts | 46° |
| 2026-04-25 12:09 | 46.99339 | 15.44097 | 1105 ft | 13 kts | 46° |
| 2026-04-25 12:09 | 46.99365 | 15.44136 | 1105 ft | 0 kts | 44° |
| 2026-04-25 12:10 | 46.99374 | 15.44150 | 1102 ft | 8 kts | 46° |
| 2026-04-25 12:10 | 46.99425 | 15.44228 | 1106 ft | 10 kts | 49° |
| 2026-04-25 12:10 | 46.99406 | 15.44283 | 1106 ft | 7 kts | 165° |
| 2026-04-25 12:11 | 46.99342 | 15.44302 | 1102 ft | 12 kts | 169° |
| 2026-04-25 12:11 | 46.99253 | 15.44326 | 1104 ft | 14 kts | 170° |
| 2026-04-25 12:11 | 46.99158 | 15.44351 | 1103 ft | 13 kts | 168° |
| 2026-04-25 12:11 | 46.99093 | 15.44394 | 1102 ft | 9 kts | 78° |
| 2026-04-25 12:12 | 46.99103 | 15.44451 | 1102 ft | 4 kts | 37° |
| 2026-04-25 12:12 | 46.99119 | 15.44448 | 1102 ft | 3 kts | 335° |
| 2026-04-25 12:12 | 46.99123 | 15.44447 | 1102 ft | 0 kts | 347° |